createdAt,value
2017-09-27T00:00:35.526Z,238.55
2017-09-27T00:03:04.870Z,282.10
2017-09-27T00:05:33.185Z,269.73
2017-09-27T00:08:00.776Z,285.75
2017-09-27T00:10:28.415Z,289.90
2017-09-27T00:12:56.047Z,285.08
2017-09-27T00:15:23.654Z,246.48
2017-09-27T00:17:51.274Z,267.15
2017-09-27T00:20:18.899Z,257.58
2017-09-27T00:22:46.524Z,251.77
2017-09-27T00:25:14.121Z,280.30
2017-09-27T00:27:41.670Z,386.02
2017-09-27T00:30:09.262Z,286.55
2017-09-27T00:32:36.844Z,268.08
2017-09-27T00:35:04.512Z,272.55
2017-09-27T00:37:32.149Z,258.98
2017-09-27T00:39:59.779Z,258.15
2017-09-27T00:42:27.411Z,260.75
2017-09-27T00:44:55.042Z,258.38
2017-09-27T00:47:22.639Z,259.30
2017-09-27T00:49:50.259Z,269.25
2017-09-27T00:52:17.898Z,235.18
2017-09-27T00:54:45.537Z,237.07
2017-09-27T00:57:13.181Z,248.55
2017-09-27T00:59:40.831Z,251.02
2017-09-27T01:02:08.467Z,254.77
2017-09-27T01:04:36.069Z,264.33
2017-09-27T01:07:03.747Z,281.80
2017-09-27T01:09:31.379Z,271.55
2017-09-27T01:11:59.048Z,309.83
2017-09-27T01:14:26.670Z,357.65
2017-09-27T01:16:55.065Z,333.17
2017-09-27T01:19:22.722Z,332.70
2017-09-27T01:21:50.367Z,287.08
2017-09-27T01:24:18.024Z,333.85
2017-09-27T01:26:46.448Z,286.85
2017-09-27T01:29:14.167Z,295.12
2017-09-27T01:31:41.787Z,301.23
2017-09-27T01:34:09.398Z,218.57
2017-09-27T01:36:37.814Z,238.18
2017-09-27T01:39:05.402Z,300.33
2017-09-27T01:41:33.043Z,273.77
2017-09-27T01:44:00.714Z,262.73
2017-09-27T01:46:28.308Z,246.95
2017-09-27T01:48:55.976Z,266.58
2017-09-27T01:51:23.630Z,288.12
2017-09-27T01:53:51.242Z,252.15
2017-09-27T01:56:18.880Z,304.90
2017-09-27T01:58:46.515Z,467.48
2017-09-27T02:01:14.107Z,410.55
2017-09-27T02:03:41.729Z,558.03
2017-09-27T02:06:09.365Z,411.50
2017-09-27T02:08:36.955Z,343.65
2017-09-27T02:11:04.588Z,305.10
2017-09-27T02:13:32.211Z,309.62
2017-09-27T02:15:59.835Z,288.30
2017-09-27T02:18:27.630Z,470.75
2017-09-27T02:20:56.018Z,359.08
2017-09-27T02:23:24.368Z,640.03
2017-09-27T02:25:52.001Z,535.42
2017-09-27T02:28:19.655Z,480.20
2017-09-27T02:30:47.276Z,429.77
2017-09-27T02:33:14.858Z,493.08
2017-09-27T02:35:42.439Z,648.17
2017-09-27T02:38:10.021Z,427.73
2017-09-27T02:40:37.645Z,434.42
2017-09-27T02:43:05.270Z,552.80
2017-09-27T02:45:33.653Z,404.30
2017-09-27T02:48:01.276Z,348.83
2017-09-27T02:50:28.936Z,388.45
2017-09-27T02:52:56.564Z,278.80
2017-09-27T02:55:24.220Z,185.88
2017-09-27T02:57:51.819Z,183.98
2017-09-27T03:00:19.416Z,168.07
2017-09-27T03:02:47.002Z,134.48
2017-09-27T03:05:14.627Z,146.15
2017-09-27T03:07:42.243Z,150.70
2017-09-27T03:10:09.862Z,132.65
2017-09-27T03:12:38.227Z,138.50
2017-09-27T03:15:05.820Z,127.00
2017-09-27T03:17:33.438Z,123.30
2017-09-27T03:20:01.076Z,131.50
2017-09-27T03:22:28.702Z,146.70
2017-09-27T03:24:56.367Z,137.55
2017-09-27T03:27:23.991Z,132.57
2017-09-27T03:29:51.640Z,127.25
2017-09-27T03:32:19.322Z,136.55
2017-09-27T03:34:46.943Z,167.82
2017-09-27T03:37:14.573Z,129.75
2017-09-27T03:39:42.282Z,131.65
2017-09-27T03:42:09.869Z,112.95
2017-09-27T03:44:37.493Z,123.80
2017-09-27T03:47:05.131Z,121.45
2017-09-27T03:49:32.712Z,126.12
2017-09-27T03:52:00.335Z,131.35
2017-09-27T03:54:27.959Z,143.13
2017-09-27T03:56:55.543Z,128.27
2017-09-27T03:59:23.258Z,158.77
2017-09-27T04:01:50.847Z,139.88
2017-09-27T04:04:18.425Z,133.27
2017-09-27T04:06:46.017Z,139.18
2017-09-27T04:09:13.676Z,136.18
2017-09-27T04:11:41.266Z,138.88
2017-09-27T04:14:08.853Z,172.73
2017-09-27T04:16:36.439Z,172.30
2017-09-27T04:19:04.055Z,169.73
2017-09-27T04:21:31.648Z,133.57
2017-09-27T04:23:59.239Z,119.82
2017-09-27T04:26:26.851Z,131.18
2017-09-27T04:28:54.478Z,123.50
2017-09-27T04:31:22.104Z,120.15
2017-09-27T04:33:49.723Z,142.52
2017-09-27T04:36:17.399Z,123.43
2017-09-27T04:38:45.027Z,136.45
2017-09-27T04:41:12.602Z,135.98
2017-09-27T04:43:40.196Z,130.07
2017-09-27T04:46:07.810Z,145.43
2017-09-27T04:48:35.359Z,125.40
2017-09-27T04:51:02.941Z,136.65
2017-09-27T04:53:30.567Z,144.73
2017-09-27T04:55:58.219Z,160.07
2017-09-27T04:58:25.854Z,168.25
2017-09-27T05:00:53.501Z,164.75
2017-09-27T05:03:21.086Z,154.45
2017-09-27T05:05:48.710Z,186.48
2017-09-27T05:08:16.337Z,182.93
2017-09-27T05:10:43.927Z,475.02
2017-09-27T05:13:11.612Z,216.27
2017-09-27T05:15:39.197Z,149.75
2017-09-27T05:18:06.855Z,337.27
2017-09-27T05:20:35.260Z,321.08
2017-09-27T05:23:02.886Z,129.35
2017-09-27T05:25:30.489Z,217.57
2017-09-27T05:27:58.110Z,142.93
2017-09-27T05:30:25.742Z,92.97
2017-09-27T05:32:53.321Z,79.57
2017-09-27T05:35:20.963Z,65.65
2017-09-27T05:37:48.544Z,59.17
2017-09-27T05:40:16.138Z,45.10
2017-09-27T05:42:43.731Z,56.75
2017-09-27T05:45:11.314Z,44.95
2017-09-27T05:47:39.001Z,68.72
2017-09-27T05:50:06.601Z,49.20
2017-09-27T05:52:34.215Z,41.65
2017-09-27T05:55:01.894Z,47.85
2017-09-27T05:57:29.517Z,46.97
2017-09-27T05:59:57.144Z,51.05
2017-09-27T06:02:24.766Z,64.30
2017-09-27T06:04:52.353Z,69.22
2017-09-27T06:07:19.946Z,53.45
2017-09-27T06:09:47.658Z,53.87
2017-09-27T06:12:15.247Z,54.88
2017-09-27T06:14:42.866Z,60.00
2017-09-27T06:17:10.486Z,48.50
2017-09-27T06:19:38.110Z,48.72
2017-09-27T06:22:05.742Z,52.75
2017-09-27T06:24:33.366Z,46.70
2017-09-27T06:27:01.038Z,44.17
2017-09-27T06:29:29.440Z,46.95
2017-09-27T06:31:57.135Z,45.58
2017-09-27T06:34:24.783Z,44.08
2017-09-27T06:36:52.415Z,41.47
2017-09-27T06:39:20.045Z,45.20
2017-09-27T06:41:47.689Z,40.22
2017-09-27T06:44:15.362Z,43.75
2017-09-27T06:46:42.956Z,38.33
2017-09-27T06:49:10.579Z,38.90
2017-09-27T06:51:38.927Z,43.20
2017-09-27T06:54:06.571Z,42.50
2017-09-27T06:56:34.202Z,37.47
2017-09-27T06:59:01.792Z,45.73
2017-09-27T07:01:29.447Z,40.17
2017-09-27T07:03:57.077Z,39.40
2017-09-27T07:06:24.718Z,44.57
2017-09-27T07:08:53.151Z,37.67
2017-09-27T07:11:20.810Z,43.50
2017-09-27T07:13:48.491Z,37.47
2017-09-27T07:16:16.124Z,38.00
2017-09-27T07:18:43.715Z,33.97
2017-09-27T07:21:11.304Z,25.42
2017-09-27T07:23:39.702Z,33.17
2017-09-27T07:26:07.333Z,36.75
2017-09-27T07:28:34.976Z,38.17
2017-09-27T07:31:02.573Z,45.63
2017-09-27T07:33:30.163Z,43.08
2017-09-27T07:35:57.798Z,53.90
2017-09-27T07:38:25.444Z,37.50
2017-09-27T07:40:53.066Z,34.83
2017-09-27T07:43:20.687Z,33.75
2017-09-27T07:45:48.301Z,26.98
2017-09-27T07:48:15.951Z,25.60
2017-09-27T07:50:43.602Z,23.62
2017-09-27T07:53:11.198Z,31.45
2017-09-27T07:55:38.849Z,25.00
2017-09-27T07:58:07.159Z,32.42
2017-09-27T08:00:34.775Z,26.62
2017-09-27T08:03:02.402Z,26.30
2017-09-27T08:05:29.991Z,23.10
2017-09-27T08:07:57.587Z,26.53
2017-09-27T08:10:25.188Z,31.70
2017-09-27T08:12:52.809Z,24.20
2017-09-27T08:15:20.424Z,19.30
2017-09-27T08:17:48.062Z,20.70
2017-09-27T08:20:15.641Z,21.83
2017-09-27T08:22:43.347Z,22.23
2017-09-27T08:25:11.732Z,21.97
2017-09-27T08:27:39.322Z,18.40
2017-09-27T08:30:07.823Z,18.53
2017-09-27T08:32:35.450Z,25.20
2017-09-27T08:35:03.130Z,20.40
2017-09-27T08:37:30.757Z,19.10
2017-09-27T08:39:58.394Z,21.60
2017-09-27T08:42:26.023Z,17.13
2017-09-27T08:44:53.604Z,18.97
2017-09-27T08:47:21.234Z,19.20
2017-09-27T08:49:49.633Z,22.70
2017-09-27T08:52:17.274Z,20.03
2017-09-27T08:54:45.625Z,16.90
2017-09-27T08:57:13.222Z,17.93
2017-09-27T08:59:40.836Z,19.53
2017-09-27T09:02:08.434Z,20.63
2017-09-27T09:04:36.867Z,14.70
2017-09-27T09:07:04.460Z,14.23
2017-09-27T09:09:32.049Z,16.97
2017-09-27T09:11:59.640Z,18.73
2017-09-27T09:14:27.187Z,15.33
2017-09-27T09:16:54.810Z,18.30
2017-09-27T09:19:22.435Z,17.70
2017-09-27T09:21:50.069Z,17.10
2017-09-27T09:24:17.694Z,14.37
2017-09-27T09:26:46.085Z,23.83
2017-09-27T09:29:13.717Z,15.83
2017-09-27T09:31:41.366Z,16.30
2017-09-27T09:34:08.978Z,18.33
2017-09-27T09:36:36.778Z,14.93
2017-09-27T09:39:04.439Z,15.17
2017-09-27T09:41:32.066Z,24.30
2017-09-27T09:43:59.654Z,20.87
2017-09-27T09:46:27.234Z,14.70
2017-09-27T09:48:54.856Z,17.37
2017-09-27T09:51:22.478Z,15.80
2017-09-27T09:53:50.108Z,17.63
2017-09-27T09:56:17.751Z,14.43
2017-09-27T09:58:45.372Z,18.23
2017-09-27T10:01:13.003Z,16.07
2017-09-27T10:03:40.626Z,14.87
2017-09-27T10:06:08.247Z,18.77
2017-09-27T10:08:35.868Z,16.53
2017-09-27T10:11:03.446Z,17.70
2017-09-27T10:13:31.143Z,19.70
2017-09-27T10:15:58.766Z,17.67
2017-09-27T10:18:26.348Z,17.93
2017-09-27T10:20:53.982Z,18.53
2017-09-27T10:23:21.569Z,17.40
2017-09-27T10:25:49.144Z,19.43
2017-09-27T10:28:17.546Z,19.13
2017-09-27T10:30:46.334Z,19.43
2017-09-27T10:33:15.383Z,17.67
2017-09-27T10:35:43.012Z,15.93
2017-09-27T10:38:10.630Z,18.20
2017-09-27T10:40:39.096Z,20.10
2017-09-27T10:43:06.716Z,26.53
2017-09-27T10:45:34.333Z,18.53
2017-09-27T10:48:01.984Z,19.07
2017-09-27T10:50:29.664Z,19.33
2017-09-27T10:52:57.297Z,20.13
2017-09-27T10:55:25.457Z,16.30
2017-09-27T10:57:53.086Z,22.43
2017-09-27T11:00:20.796Z,18.03
2017-09-27T11:02:48.430Z,25.13
2017-09-27T11:05:16.067Z,19.37
2017-09-27T11:07:43.696Z,17.20
2017-09-27T11:10:12.093Z,22.60
2017-09-27T11:12:39.717Z,20.80
2017-09-27T11:15:07.294Z,23.13
2017-09-27T11:17:34.877Z,24.80
2017-09-27T11:20:02.516Z,18.73
2017-09-27T11:22:30.140Z,23.00
2017-09-27T11:24:57.766Z,24.70
2017-09-27T11:27:25.463Z,21.50
2017-09-27T11:29:53.103Z,21.73
2017-09-27T11:32:20.689Z,18.83
2017-09-27T11:34:48.330Z,20.53
2017-09-27T11:37:15.997Z,21.13
2017-09-27T11:39:43.625Z,19.37
2017-09-27T11:42:12.006Z,17.63
2017-09-27T11:44:39.593Z,24.37
2017-09-27T11:47:07.194Z,29.80
2017-09-27T11:49:34.819Z,25.47
2017-09-27T11:52:02.475Z,23.57
2017-09-27T11:54:30.120Z,23.60
2017-09-27T11:56:57.780Z,18.58
2017-09-27T11:59:25.436Z,21.37
2017-09-27T12:01:53.094Z,22.80
2017-09-27T12:04:21.479Z,28.58
2017-09-27T12:06:49.868Z,25.62
2017-09-27T12:09:17.667Z,27.65
2017-09-27T12:11:45.266Z,32.35
2017-09-27T12:14:12.891Z,27.13
2017-09-27T12:16:40.547Z,33.22
2017-09-27T12:19:08.362Z,35.42
2017-09-27T12:21:36.754Z,47.40
2017-09-27T12:24:05.135Z,32.35
2017-09-27T12:26:32.717Z,36.25
2017-09-27T12:29:00.346Z,44.20
2017-09-27T12:31:28.732Z,43.20
2017-09-27T12:33:56.368Z,37.33
2017-09-27T12:36:23.948Z,43.30
2017-09-27T12:38:52.413Z,39.83
2017-09-27T12:41:20.043Z,55.35
2017-09-27T12:43:47.681Z,52.10
2017-09-27T12:46:15.406Z,50.90
2017-09-27T12:48:42.993Z,40.05
2017-09-27T12:51:10.588Z,46.65
2017-09-27T12:53:38.224Z,52.28
2017-09-27T12:56:06.610Z,54.83
2017-09-27T12:58:34.282Z,55.75
2017-09-27T13:01:01.916Z,46.35
2017-09-27T13:03:29.499Z,62.35
2017-09-27T13:05:57.086Z,60.15
2017-09-27T13:08:24.723Z,67.43
2017-09-27T13:10:52.351Z,64.05
2017-09-27T13:13:20.802Z,66.32
2017-09-27T13:15:48.464Z,87.12
2017-09-27T13:18:16.102Z,75.70
2017-09-27T13:20:43.729Z,73.37
2017-09-27T13:23:11.346Z,74.53
2017-09-27T13:25:38.936Z,88.62
2017-09-27T13:28:07.285Z,79.05
2017-09-27T13:30:34.910Z,70.53
2017-09-27T13:33:02.500Z,74.25
2017-09-27T13:35:30.114Z,85.32
2017-09-27T13:37:57.711Z,87.18
2017-09-27T13:40:25.337Z,76.70
2017-09-27T13:42:52.967Z,89.97
2017-09-27T13:45:21.326Z,90.82
2017-09-27T13:47:48.958Z,93.03
2017-09-27T13:50:16.585Z,97.37
2017-09-27T13:52:44.231Z,93.12
2017-09-27T13:55:11.891Z,103.07
2017-09-27T13:57:39.491Z,91.12
2017-09-27T14:00:07.186Z,102.75
2017-09-27T14:02:34.879Z,100.43
2017-09-27T14:05:03.316Z,106.85
2017-09-27T14:07:30.894Z,127.05
2017-09-27T14:09:58.488Z,106.87
2017-09-27T14:12:26.885Z,100.68
2017-09-27T14:14:54.515Z,118.57
2017-09-27T14:17:22.131Z,117.20
2017-09-27T14:19:50.670Z,110.50
2017-09-27T14:22:18.327Z,110.22
2017-09-27T14:24:46.031Z,110.57
2017-09-27T14:27:13.678Z,119.53
2017-09-27T14:29:41.307Z,115.68
2017-09-27T14:32:08.949Z,113.37
2017-09-27T14:34:36.589Z,118.72
2017-09-27T14:37:04.273Z,106.35
2017-09-27T14:39:31.924Z,120.65
2017-09-27T14:41:59.665Z,115.07
2017-09-27T14:44:27.411Z,117.15
2017-09-27T14:46:55.801Z,114.10
2017-09-27T14:49:23.455Z,129.12
2017-09-27T14:51:53.158Z,153.02
2017-09-27T14:54:20.799Z,115.68
2017-09-27T14:56:48.435Z,117.55
2017-09-27T14:59:16.086Z,113.78
2017-09-27T15:01:43.691Z,129.98
2017-09-27T15:04:11.366Z,113.93
2017-09-27T15:06:39.050Z,126.55
2017-09-27T15:09:06.674Z,128.85
2017-09-27T15:11:34.340Z,129.48
2017-09-27T15:14:02.738Z,125.85
2017-09-27T15:16:30.562Z,123.30
2017-09-27T15:18:59.290Z,129.10
2017-09-27T15:21:26.938Z,137.02
2017-09-27T15:23:55.327Z,135.35
2017-09-27T15:26:23.696Z,141.52
2017-09-27T15:28:52.058Z,147.30
2017-09-27T15:31:19.695Z,134.55
2017-09-27T15:33:47.341Z,140.73
2017-09-27T15:36:14.974Z,146.50
2017-09-27T15:38:42.604Z,148.40
2017-09-27T15:41:10.207Z,162.82
2017-09-27T15:43:37.899Z,161.35
2017-09-27T15:46:05.523Z,155.50
2017-09-27T15:48:33.274Z,155.20
2017-09-27T15:51:01.735Z,160.68
2017-09-27T15:53:29.414Z,163.23
2017-09-27T15:55:57.827Z,163.35
2017-09-27T15:58:25.459Z,158.73
2017-09-27T16:00:53.083Z,163.05
2017-09-27T16:03:20.719Z,159.75
2017-09-27T16:05:49.093Z,186.52
2017-09-27T16:08:16.736Z,164.60
2017-09-27T16:10:44.381Z,172.80
2017-09-27T16:13:13.406Z,172.93
2017-09-27T16:15:41.071Z,177.70
2017-09-27T16:18:08.698Z,180.10
2017-09-27T16:20:37.060Z,181.85
2017-09-27T16:23:04.688Z,188.15
2017-09-27T16:25:32.283Z,185.20
2017-09-27T16:27:59.914Z,189.82
2017-09-27T16:30:27.571Z,203.10
2017-09-27T16:32:55.224Z,189.27
2017-09-27T16:35:22.860Z,200.45
2017-09-27T16:37:50.445Z,197.73
2017-09-27T16:40:18.043Z,181.80
2017-09-27T16:42:45.682Z,188.93
2017-09-27T16:45:13.310Z,191.37
2017-09-27T16:47:40.935Z,199.38
2017-09-27T16:50:08.529Z,189.90
2017-09-27T16:52:36.132Z,204.63
2017-09-27T16:55:03.767Z,202.68
2017-09-27T16:57:31.408Z,196.55
2017-09-27T16:59:58.992Z,218.75
2017-09-27T17:02:26.697Z,193.27
2017-09-27T17:04:54.309Z,209.18
2017-09-27T17:07:21.947Z,223.50
2017-09-27T17:09:50.314Z,214.45
2017-09-27T17:12:17.966Z,215.93
2017-09-27T17:14:45.607Z,216.02
2017-09-27T17:17:13.237Z,207.00
2017-09-27T17:19:40.897Z,226.10
2017-09-27T17:22:08.523Z,230.60
2017-09-27T17:24:36.071Z,211.40
2017-09-27T17:27:03.668Z,208.20
2017-09-27T17:29:31.326Z,243.40
2017-09-27T17:31:58.962Z,238.45
2017-09-27T17:34:27.593Z,231.95
2017-09-27T17:36:55.192Z,219.50
2017-09-27T17:39:22.791Z,226.73
2017-09-27T17:41:50.415Z,224.68
2017-09-27T17:44:18.047Z,222.75
2017-09-27T17:46:45.690Z,226.50
2017-09-27T17:49:13.282Z,224.25
2017-09-27T17:51:40.922Z,234.15
2017-09-27T17:54:08.816Z,239.48
2017-09-27T17:56:36.454Z,216.35
2017-09-27T17:59:04.094Z,235.32
2017-09-27T18:01:31.686Z,239.98
2017-09-27T18:03:59.317Z,234.93
2017-09-27T18:06:32.644Z,225.25
2017-09-27T18:09:19.933Z,231.35
2017-09-27T18:11:53.131Z,243.60
2017-09-27T18:14:41.570Z,235.05
2017-09-27T18:17:10.966Z,245.70
2017-09-27T18:19:38.574Z,240.55
2017-09-27T18:22:06.246Z,223.68
2017-09-27T18:24:33.844Z,219.32
2017-09-27T18:27:01.466Z,250.27
2017-09-27T18:29:29.101Z,238.77
2017-09-27T18:31:56.688Z,222.65
2017-09-27T18:34:24.351Z,237.43
2017-09-27T18:36:51.987Z,223.55
2017-09-27T18:39:19.633Z,226.98
2017-09-27T18:41:47.266Z,207.15
2017-09-27T18:44:14.946Z,213.73
2017-09-27T18:46:42.927Z,213.65
2017-09-27T18:49:11.079Z,242.40
2017-09-27T18:51:39.487Z,235.05
2017-09-27T18:54:07.376Z,224.05
2017-09-27T18:56:34.965Z,228.88
2017-09-27T18:59:02.608Z,236.10
2017-09-27T19:01:30.235Z,256.42
2017-09-27T19:03:57.869Z,239.75
2017-09-27T19:06:25.504Z,227.82
2017-09-27T19:08:53.190Z,229.93
2017-09-27T19:11:20.785Z,226.93
2017-09-27T19:13:48.410Z,248.07
2017-09-27T19:16:16.053Z,252.48
2017-09-27T19:18:43.650Z,254.45
2017-09-27T19:21:12.267Z,247.85
2017-09-27T19:23:40.676Z,248.62
2017-09-27T19:26:09.423Z,240.10
2017-09-27T19:28:37.036Z,274.20
2017-09-27T19:31:04.665Z,268.50
2017-09-27T19:33:32.270Z,267.75
2017-09-27T19:35:59.923Z,271.05
2017-09-27T19:38:27.516Z,288.60
2017-09-27T19:40:55.156Z,275.67
2017-09-27T19:43:22.838Z,282.25
2017-09-27T19:45:51.234Z,260.75
2017-09-27T19:48:18.868Z,268.05
2017-09-27T19:50:47.276Z,296.08
2017-09-27T19:53:14.922Z,281.25
2017-09-27T19:55:42.564Z,246.85
2017-09-27T19:58:10.962Z,284.98
2017-09-27T20:00:38.599Z,263.62
2017-09-27T20:03:06.231Z,278.70
2017-09-27T20:05:33.825Z,255.40
2017-09-27T20:08:01.466Z,266.63
2017-09-27T20:10:29.136Z,270.37
2017-09-27T20:12:56.784Z,269.02
2017-09-27T20:15:24.407Z,277.90
2017-09-27T20:17:52.072Z,247.63
2017-09-27T20:20:19.705Z,263.77
2017-09-27T20:22:47.331Z,266.00
2017-09-27T20:25:14.959Z,281.77
2017-09-27T20:27:42.553Z,269.52
2017-09-27T20:30:10.182Z,278.33
2017-09-27T20:32:37.867Z,289.10
2017-09-27T20:35:05.494Z,295.92
2017-09-27T20:37:33.130Z,287.73
2017-09-27T20:40:00.760Z,280.08
2017-09-27T20:42:28.406Z,276.40
2017-09-27T20:44:56.068Z,288.65
2017-09-27T20:47:23.679Z,294.65
2017-09-27T20:49:51.279Z,308.75
2017-09-27T20:52:18.899Z,301.83
2017-09-27T20:54:46.543Z,292.98
2017-09-27T20:57:14.171Z,309.80
2017-09-27T20:59:41.796Z,295.25
2017-09-27T21:02:09.419Z,261.30
2017-09-27T21:04:37.047Z,273.67
2017-09-27T21:07:04.680Z,233.65
2017-09-27T21:09:33.084Z,239.77
2017-09-27T21:12:00.704Z,257.30
2017-09-27T21:14:28.327Z,233.70
2017-09-27T21:16:55.965Z,207.48
2017-09-27T21:19:23.552Z,205.77
2017-09-27T21:21:51.204Z,207.48
2017-09-27T21:24:18.788Z,216.18
2017-09-27T21:26:46.422Z,208.23
2017-09-27T21:29:14.003Z,209.52
2017-09-27T21:31:41.654Z,219.60
2017-09-27T21:34:09.299Z,235.30
2017-09-27T21:36:36.924Z,255.27
2017-09-27T21:39:05.353Z,227.73
2017-09-27T21:41:32.938Z,286.12
2017-09-27T21:44:00.548Z,229.70
2017-09-27T21:46:28.139Z,246.10
2017-09-27T21:48:55.784Z,220.88
2017-09-27T21:51:23.430Z,227.48
2017-09-27T21:53:51.054Z,272.45
2017-09-27T21:56:18.675Z,253.88
2017-09-27T21:58:47.016Z,240.80
2017-09-27T22:01:14.602Z,226.37
2017-09-27T22:03:44.604Z,237.65
2017-09-27T22:06:29.792Z,236.02
2017-09-27T22:08:57.419Z,223.35
2017-09-27T22:11:25.043Z,252.15
2017-09-27T22:13:52.674Z,210.77
2017-09-27T22:16:20.339Z,211.35
2017-09-27T22:18:47.980Z,200.13
2017-09-27T22:21:16.376Z,231.23
2017-09-27T22:23:44.019Z,218.48
2017-09-27T22:26:11.695Z,205.77
2017-09-27T22:28:39.335Z,209.55
2017-09-27T22:31:07.709Z,203.18
2017-09-27T22:33:36.107Z,182.12
2017-09-27T22:36:04.451Z,192.87
2017-09-27T22:38:32.086Z,167.13
2017-09-27T22:40:59.700Z,171.48
2017-09-27T22:43:28.061Z,189.00
2017-09-27T22:45:55.672Z,178.98
2017-09-27T22:48:23.304Z,179.77
2017-09-27T22:50:51.716Z,171.30
2017-09-27T22:53:19.374Z,168.25
2017-09-27T22:55:47.059Z,152.55
2017-09-27T22:58:14.682Z,133.50
2017-09-27T23:00:42.302Z,129.65
2017-09-27T23:03:09.942Z,118.65
2017-09-27T23:05:37.571Z,118.07
2017-09-27T23:08:05.171Z,105.15
2017-09-27T23:10:32.837Z,101.12
2017-09-27T23:13:00.517Z,89.30
2017-09-27T23:15:28.118Z,98.57
2017-09-27T23:17:55.705Z,88.62
2017-09-27T23:20:23.486Z,97.47
2017-09-27T23:22:51.084Z,99.65
2017-09-27T23:25:18.725Z,100.95
2017-09-27T23:27:46.354Z,131.95
2017-09-27T23:30:14.028Z,118.90
2017-09-27T23:32:41.653Z,102.55
2017-09-27T23:35:09.283Z,108.15
2017-09-27T23:37:37.640Z,87.45
2017-09-27T23:40:05.271Z,93.90
2017-09-27T23:42:32.909Z,101.57
2017-09-27T23:45:00.563Z,100.95
2017-09-27T23:47:28.189Z,105.47
2017-09-27T23:49:55.771Z,95.85
2017-09-27T23:52:23.344Z,106.20
2017-09-27T23:54:51.731Z,111.72
2017-09-27T23:57:19.311Z,114.32
2017-09-27T23:59:46.950Z,118.97
